Terminal Aerodrome Forecast
Issued by NWS Sterling, VA

Current Version | Previous Version | Graphics & Text | Print | Product List | Glossary On
Versions: 1 2 3 4 5 6 7 8 9 10 11 12 13 14 15 16 17 18 19 20 21
000
FTUS41 KLWX 300500 RRA
TAFMRB
TAF
KMRB 300546Z 3006/0106 VRB03KT P6SM SCT050
     FM300800 00000KT 2SM BR SCT050
     FM301000 00000KT 1/2SM FG SCT090
     FM301300 00000KT 5SM BR FEW050 SCT090
     FM301500 00000KT P6SM FEW050 SCT250=

USA.gov is the U.S. government's official web portal to all federal, state and local government web resources and services.